Terminal Aerodrome Forecast
Issued by NWS Jacksonville, FL

Home | Current Version | Previous Version | Text Only | Print | Product List | Glossary On
Versions: 1 2 3 4 5 6 7 8 9 10 11 12 13 14 15 16 17 18 19 20 21 22 23 24 25 26 27 28
000
FTUS42 KJAX 211422 AAD
TAFSSI
TAF AMD
KSSI 211422Z 2114/2212 VRB06KT 3SM SHRA VCTS BKN020CB
      TEMPO 2114/2116 1SM TSRA OVC018CB
     FM211600 11007KT 6SM SHRA BR SCT015 BKN025 OVC070
     FM211900 12010KT P6SM VCSH SCT025 BKN100 BKN200
     FM212300 15007KT P6SM SCT100=

USA.gov is the U.S. government's official web portal to all federal, state and local government web resources and services.